Time;durP1;ratioP1;P1;durP2;ratioP2;P2;SDS_P1;SDS_P2;PMS_P1;PMS_P2;Temp;Humidity;BMP_temperature;BMP_pressure;BME280_temperature;BME280_humidity;BME280_pressure;Samples;Min_cycle;Max_cycle;Signal;HPM_P1;HPM_P2
2022/06/11 00:01:29;;;;;;;12.07;4.20;;;;;;;19.27;100.00;99831.64;1524204;94;21141;-75
2022/06/11 00:04:00;;;;;;;11.90;3.90;;;;;;;19.21;100.00;99824.34;1524201;93;21664;-77
2022/06/11 00:06:30;;;;;;;8.43;3.90;;;;;;;19.19;100.00;99827.84;1524503;94;21577;-76
2022/06/11 00:08:57;;;;;;;12.23;3.80;;;;;;;19.13;100.00;99818.66;1523929;94;21208;-77
2022/06/11 00:11:25;;;;;;;11.65;4.00;;;;;;;19.07;100.00;99817.69;1524348;94;21099;-76
2022/06/11 00:13:52;;;;;;;7.58;3.80;;;;;;;19.03;100.00;99815.09;1523555;94;21128;-77
2022/06/11 00:16:22;;;;;;;9.45;3.83;;;;;;;19.00;100.00;99811.98;1513235;95;21169;-77
2022/06/11 00:18:49;;;;;;;9.33;3.67;;;;;;;18.96;100.00;99811.09;1548251;92;21173;-77
2022/06/11 00:21:16;;;;;;;10.90;3.62;;;;;;;18.94;100.00;99815.12;1557082;92;21118;-77
2022/06/11 00:23:44;;;;;;;9.70;3.50;;;;;;;18.91;100.00;99810.95;1556805;92;21600;-76
2022/06/11 00:26:11;;;;;;;6.92;3.10;;;;;;;18.89;100.00;99810.36;1615764;88;21042;-76
2022/06/11 00:28:38;;;;;;;8.10;3.77;;;;;;;18.89;100.00;99813.61;1599099;90;21077;-77
2022/06/11 00:31:06;;;;;;;8.98;3.50;;;;;;;18.87;100.00;99813.00;1599095;90;21062;-76
2022/06/11 00:33:35;;;;;;;9.40;3.70;;;;;;;18.86;100.00;99811.35;1599202;90;21050;-76
2022/06/11 00:36:03;;;;;;;8.13;3.42;;;;;;;18.82;100.00;99810.95;1635144;88;21054;-77
2022/06/11 00:38:33;;;;;;;8.58;3.80;;;;;;;18.81;100.00;99819.39;1634387;87;21094;-76
2022/06/11 00:41:00;;;;;;;6.60;3.30;;;;;;;18.79;100.00;99812.77;1653348;87;21055;-74
2022/06/11 00:43:28;;;;;;;7.55;3.62;;;;;;;18.75;100.00;99816.50;1652922;87;21642;-76
2022/06/11 00:46:03;;;;;;;7.37;3.40;;;;;;;18.75;100.00;99812.91;1653332;87;21081;-77
2022/06/11 00:48:38;;;;;;;9.83;3.52;;;;;;;18.72;100.00;99811.48;1650731;87;21030;-77
2022/06/11 00:51:13;;;;;;;6.60;3.65;;;;;;;18.72;100.00;99818.33;1652981;87;21030;-75
2022/06/11 00:53:47;;;;;;;5.78;3.70;;;;;;;18.73;100.00;99808.20;1632333;88;21049;-75
2022/06/11 00:56:21;;;;;;;9.25;3.47;;;;;;;18.72;100.00;99813.39;1633340;88;21041;-75
2022/06/11 00:58:50;;;;;;;10.45;3.65;;;;;;;18.68;100.00;99810.27;1634903;88;21499;-76
2022/06/11 01:01:19;;;;;;;6.80;3.52;;;;;;;18.67;100.00;99818.72;1634659;88;21148;-74
2022/06/11 01:03:47;;;;;;;6.85;3.90;;;;;;;18.65;100.00;99814.83;1634863;88;21045;-75
2022/06/11 01:06:51;;;;;;;8.25;3.35;;;;;;;18.65;100.00;99822.22;1634684;88;21093;-76
2022/06/11 01:09:28;;;;;;;4.87;3.25;;;;;;;18.62;100.00;99815.83;1634696;88;21523;-74
2022/06/11 01:12:07;;;;;;;7.92;3.83;;;;;;;18.60;100.00;99818.79;1634670;88;21010;-74
2022/06/11 01:15:04;;;;;;;9.53;3.83;;;;;;;18.58;100.00;99821.75;1634936;88;20986;-75
2022/06/11 01:17:40;;;;;;;9.78;3.45;;;;;;;18.56;100.00;99817.59;1634539;88;21200;-75
2022/06/11 01:20:49;;;;;;;24.12;5.08;;;;;;;18.53;100.00;99816.66;1634851;88;21103;-75
2022/06/11 01:23:48;;;;;;;13.80;4.05;;;;;;;18.50;100.00;99811.64;1651794;86;21050;-75
2022/06/11 01:26:54;;;;;;;12.18;3.90;;;;;;;18.46;100.00;99815.37;1661661;86;21131;-75
2022/06/11 01:29:46;;;;;;;7.90;3.80;;;;;;;18.45;100.00;99810.98;1661932;86;21029;-76
2022/06/11 01:32:27;;;;;;;7.27;3.77;;;;;;;18.49;100.00;99808.62;1661838;86;21603;-74
2022/06/11 01:35:22;;;;;;;5.27;3.43;;;;;;;18.54;100.00;99812.34;1609697;89;21038;-76
2022/06/11 01:37:54;;;;;;;5.95;3.72;;;;;;;18.58;100.00;99805.87;1629505;88;21020;-75
2022/06/11 01:40:45;;;;;;;6.83;4.20;;;;;;;18.60;100.00;99806.47;1581823;91;21231;-75
2022/06/11 01:43:36;;;;;;;9.40;4.20;;;;;;;18.63;100.00;99812.00;1582228;91;21549;-73
2022/06/11 01:46:08;;;;;;;6.03;3.50;;;;;;;18.63;100.00;99814.74;1497459;96;21098;-74
2022/06/11 01:48:36;;;;;;;8.00;3.40;;;;;;;18.55;100.00;99819.47;1497698;91;21059;-74
2022/06/11 01:51:36;;;;;;;9.80;3.90;;;;;;;18.47;100.00;99821.16;1496266;96;21670;-75
2022/06/11 01:54:21;;;;;;;7.37;3.72;;;;;;;18.39;100.00;99814.06;1430054;100;21146;-75
2022/06/11 01:57:24;;;;;;;11.00;3.92;;;;;;;18.30;100.00;99809.14;1407496;102;21190;-73
2022/06/11 02:00:11;;;;;;;8.28;3.77;;;;;;;18.21;100.00;99823.66;1368999;105;21194;-74
2022/06/11 02:03:00;;;;;;;10.25;3.27;;;;;;;18.12;100.00;99825.02;1366665;105;21214;-74
2022/06/11 02:05:45;;;;;;;8.48;3.62;;;;;;;18.03;100.00;99823.92;1365756;105;21207;-74
2022/06/11 02:08:46;;;;;;;9.13;3.45;;;;;;;17.97;100.00;99828.09;1374716;104;21153;-74
2022/06/11 02:11:27;;;;;;;6.92;3.45;;;;;;;17.89;100.00;99843.44;1377342;102;21647;-75
2022/06/11 02:14:05;;;;;;;9.33;3.85;;;;;;;17.82;100.00;99837.98;1410567;100;21137;-75
2022/06/11 02:16:58;;;;;;;6.30;3.70;;;;;;;17.77;100.00;99839.18;1394806;103;21202;-75
2022/06/11 02:19:38;;;;;;;7.10;3.80;;;;;;;17.74;100.00;99839.11;1394992;103;21172;-76
2022/06/11 02:22:12;;;;;;;8.58;3.62;;;;;;;17.73;100.00;99832.49;1325774;103;21159;-75
2022/06/11 02:24:44;;;;;;;7.15;3.58;;;;;;;17.71;100.00;99831.34;1408139;102;21085;-75
2022/06/11 02:27:15;;;;;;;7.05;3.50;;;;;;;17.71;100.00;99831.88;1376469;102;21145;-76
2022/06/11 02:29:42;;;;;;;12.70;4.40;;;;;;;17.70;100.00;99826.09;1376612;104;21150;-76
2022/06/11 02:32:12;;;;;;;10.50;4.28;;;;;;;17.68;100.00;99815.91;1396646;103;21128;-75
2022/06/11 02:34:46;;;;;;;9.43;3.85;;;;;;;17.71;100.00;99816.84;1429460;100;21105;-75
2022/06/11 02:37:28;;;;;;;9.75;3.98;;;;;;;17.75;100.00;99807.95;1411057;100;21159;-75
2022/06/11 02:39:58;;;;;;;8.63;3.95;;;;;;;17.81;100.00;99808.95;1409681;102;21085;-75
2022/06/11 02:42:26;;;;;;;11.10;3.83;;;;;;;17.84;100.00;99805.23;1409735;102;21599;-74
2022/06/11 02:44:53;;;;;;;10.18;4.03;;;;;;;17.86;100.00;99811.05;1415720;101;21155;-76
2022/06/11 02:47:20;;;;;;;9.53;4.08;;;;;;;17.86;100.00;99813.79;1397343;103;21198;-74
2022/06/11 02:49:47;;;;;;;7.12;3.37;;;;;;;17.88;100.00;99818.50;1403076;100;21173;-75
2022/06/11 02:52:19;;;;;;;11.15;3.58;;;;;;;17.91;100.00;99822.16;1437794;99;21171;-75
2022/06/11 02:54:49;;;;;;;9.20;3.70;;;;;;;17.96;100.00;99820.95;1428911;100;21178;-75
2022/06/11 02:57:20;;;;;;;10.45;3.95;;;;;;;18.00;100.00;99821.63;1490423;93;21543;-75
2022/06/11 02:59:47;;;;;;;11.65;4.47;;;;;;;18.09;100.00;99823.55;1481419;97;21126;-75
2022/06/11 03:02:15;;;;;;;10.65;3.70;;;;;;;18.18;100.00;99821.36;1518121;95;21658;-75
2022/06/11 03:04:42;;;;;;;11.33;4.20;;;;;;;18.25;100.00;99824.86;1518351;95;21065;-75
2022/06/11 03:07:09;;;;;;;12.70;4.05;;;;;;;18.30;100.00;99826.39;1518084;95;21129;-76
2022/06/11 03:09:36;;;;;;;11.78;4.30;;;;;;;18.37;100.00;99820.31;1518422;93;21056;-76
2022/06/11 03:12:05;;;;;;;11.73;4.33;;;;;;;18.46;100.00;99826.32;1518320;95;21066;-75
2022/06/11 03:14:32;;;;;;;13.58;5.83;;;;;;;18.53;100.00;99826.25;1518263;95;21065;-76
2022/06/11 03:17:01;;;;;;;16.85;7.47;;;;;;;18.60;100.00;99824.27;1526081;92;21068;-76
2022/06/11 03:19:28;;;;;;;16.77;5.72;;;;;;;18.70;100.00;99825.11;1595698;89;21181;-74
2022/06/11 03:21:55;;;;;;;15.63;5.35;;;;;;;18.78;100.00;99826.97;1606139;89;21130;-75
2022/06/11 03:24:24;;;;;;;13.45;4.67;;;;;;;18.87;100.00;99833.55;1586856;90;21533;-75
2022/06/11 03:26:51;;;;;;;19.92;5.30;;;;;;;18.96;100.00;99834.39;1546999;92;21086;-75
2022/06/11 03:29:21;;;;;;;15.85;4.83;;;;;;;19.08;100.00;99837.16;1563799;92;21054;-74
2022/06/11 03:31:49;;;;;;;17.60;5.50;;;;;;;19.27;100.00;99848.09;1557972;92;21137;-73
2022/06/11 03:34:16;;;;;;;32.50;6.67;;;;;;;19.42;100.00;99846.27;1551792;93;21086;-76
2022/06/11 03:36:45;;;;;;;30.08;6.35;;;;;;;19.53;100.00;99849.06;1562558;92;21070;-77
2022/06/11 03:39:14;;;;;;;17.30;5.50;;;;;;;19.68;100.00;99851.89;1562466;92;21110;-75
2022/06/11 03:41:41;;;;;;;15.78;5.00;;;;;;;19.83;100.00;99857.80;1562420;92;21093;-76
2022/06/11 03:44:11;;;;;;;19.73;6.25;;;;;;;19.98;100.00;99855.95;1562336;92;21086;-76
2022/06/11 03:46:38;;;;;;;17.07;5.65;;;;;;;20.09;100.00;99850.99;1562087;90;21137;-75
2022/06/11 03:49:05;;;;;;;17.12;6.15;;;;;;;20.19;100.00;99856.45;1562511;91;21110;-76
2022/06/11 03:51:31;;;;;;;23.20;6.62;;;;;;;20.27;100.00;99856.92;1562580;92;22456;-76
2022/06/11 03:53:59;;;;;;;14.80;5.70;;;;;;;20.37;100.00;99859.60;1562639;92;21162;-76
2022/06/11 03:56:26;;;;;;;17.82;6.17;;;;;;;20.46;100.00;99859.52;1615621;88;21005;-76
2022/06/11 03:58:54;;;;;;;16.37;5.22;;;;;;;20.58;100.00;99870.50;1624902;88;21101;-75
2022/06/11 04:01:23;;;;;;;29.05;5.97;;;;;;;20.68;100.00;99870.73;1624999;88;21009;-73
2022/06/11 04:03:59;;;;;;;16.82;5.40;;;;;;;20.78;100.00;99870.95;1625054;88;21550;-74
2022/06/11 04:06:37;;;;;;;15.03;5.10;;;;;;;20.89;100.00;99869.25;1625128;88;21112;-75
2022/06/11 04:09:09;;;;;;;14.47;4.78;;;;;;;20.99;100.00;99872.77;1540698;92;21088;-74
2022/06/11 04:11:38;;;;;;;14.23;4.92;;;;;;;21.10;100.00;99876.00;1538936;92;21105;-73
2022/06/11 04:14:05;;;;;;;13.78;4.65;;;;;;;21.18;100.00;99876.17;1542632;92;21107;-73
2022/06/11 04:16:42;;;;;;;10.25;4.60;;;;;;;21.26;100.00;99878.51;1554455;92;21103;-75
2022/06/11 04:19:20;;;;;;;15.35;5.55;;;;;;;21.35;100.00;99872.08;1546126;93;21065;-73
2022/06/11 04:21:49;;;;;;;19.15;5.20;;;;;;;21.51;100.00;99878.17;1493503;95;21123;-74
2022/06/11 04:24:17;;;;;;;10.18;4.60;;;;;;;21.73;100.00;99878.31;1509368;95;21598;-73
2022/06/11 04:26:48;;;;;;;12.78;4.75;;;;;;;21.98;100.00;99884.78;1508171;95;21121;-74
2022/06/11 04:29:18;;;;;;;15.72;5.62;;;;;;;22.21;100.00;99882.94;1508345;95;21510;-74
2022/06/11 04:31:47;;;;;;;10.78;5.10;;;;;;;22.47;100.00;99886.09;1508234;95;21058;-74
2022/06/11 04:34:14;;;;;;;11.15;4.53;;;;;;;22.69;100.00;99885.58;1508281;95;21101;-75
2022/06/11 04:36:43;;;;;;;13.58;5.42;;;;;;;22.90;100.00;99886.69;1508071;95;21135;-75
2022/06/11 04:39:10;;;;;;;10.28;4.40;;;;;;;23.13;100.00;99884.24;1508162;95;21069;-74
2022/06/11 04:41:37;;;;;;;12.00;4.45;;;;;;;23.38;100.00;99890.31;1508240;95;21599;-74
2022/06/11 04:44:05;;;;;;;9.90;4.35;;;;;;;23.60;100.00;99895.77;1508220;95;21125;-74
2022/06/11 04:46:33;;;;;;;14.95;4.95;;;;;;;23.81;100.00;99888.55;1508052;95;21125;-73
2022/06/11 04:49:00;;;;;;;14.58;4.70;;;;;;;24.05;100.00;99889.86;1508235;95;21131;-73
2022/06/11 04:51:27;;;;;;;14.63;5.33;;;;;;;24.29;100.00;99883.94;1508315;95;21146;-73
2022/06/11 04:53:54;;;;;;;16.77;5.22;;;;;;;24.53;100.00;99891.33;1506331;95;21111;-74
2022/06/11 04:56:24;;;;;;;11.40;4.62;;;;;;;24.76;100.00;99886.48;1506006;95;21587;-72
2022/06/11 04:58:52;;;;;;;9.25;4.12;;;;;;;24.99;100.00;99890.73;1506067;95;21046;-74
2022/06/11 05:01:19;;;;;;;9.28;4.08;;;;;;;25.21;100.00;99887.75;1505992;95;21116;-73
2022/06/11 05:03:46;;;;;;;10.58;3.90;;;;;;;25.43;100.00;99891.73;1505944;95;21090;-73
2022/06/11 05:06:18;;;;;;;8.60;3.52;;;;;;;25.63;100.00;99894.26;1542147;91;21121;-73
2022/06/11 05:08:45;;;;;;;12.98;4.55;;;;;;;25.85;100.00;99899.53;1537833;92;21077;-74
2022/06/11 05:11:11;;;;;;;15.28;4.78;;;;;;;26.04;100.00;99899.85;1557716;91;21073;-74
2022/06/11 05:13:39;;;;;;;18.73;5.03;;;;;;;26.19;100.00;99906.78;1557153;92;21038;-73
2022/06/11 05:16:07;;;;;;;14.45;4.80;;;;;;;26.35;100.00;99908.98;1607743;88;21674;-74
2022/06/11 05:18:35;;;;;;;11.00;4.30;;;;;;;26.53;100.00;99911.72;1663668;85;21120;-73
2022/06/11 05:21:03;;;;;;;11.83;4.20;;;;;;;26.68;100.00;99918.66;1678442;85;21021;-74
2022/06/11 05:23:30;;;;;;;12.40;4.53;;;;;;;26.85;100.00;99916.92;1679614;85;21044;-74
2022/06/11 05:25:57;;;;;;;10.68;3.90;;;;;;;27.08;100.00;99916.02;1680191;85;21550;-74
2022/06/11 05:28:27;;;;;;;11.12;3.87;;;;;;;27.30;100.00;99917.61;1682296;85;21008;-72
2022/06/11 05:30:55;;;;;;;9.60;3.98;;;;;;;27.53;100.00;99922.47;1682313;85;21048;-72
2022/06/11 05:33:22;;;;;;;11.18;3.77;;;;;;;27.77;100.00;99923.16;1680646;85;21091;-74
2022/06/11 05:35:50;;;;;;;9.98;3.85;;;;;;;27.91;100.00;99924.77;1680279;85;21060;-71
2022/06/11 05:38:20;;;;;;;9.78;4.35;;;;;;;28.04;100.00;99924.09;1680085;84;21087;-71
2022/06/11 05:40:49;;;;;;;9.95;4.15;;;;;;;28.20;100.00;99926.18;1679781;85;21107;-72
2022/06/11 05:43:16;;;;;;;10.58;3.80;;;;;;;28.37;100.00;99930.75;1680245;84;21526;-80
2022/06/11 05:45:48;;;;;;;9.65;3.75;;;;;;;28.51;100.00;99934.25;1680581;84;21048;-78
2022/06/11 05:48:16;;;;;;;16.70;3.77;;;;;;;28.62;100.00;99941.96;1680656;85;21094;-78
2022/06/11 05:50:46;;;;;;;4.70;3.00;;;;;;;28.70;100.00;99937.98;1680932;85;21041;-78
2022/06/11 05:53:16;;;;;;;7.05;3.25;;;;;;;28.82;100.00;99938.13;1693670;84;21017;-76
2022/06/11 05:55:44;;;;;;;5.95;3.12;;;;;;;28.97;100.00;99938.78;1679338;85;21030;-78
2022/06/11 05:58:19;;;;;;;9.23;3.30;;;;;;;29.13;100.00;99930.25;1660760;86;21030;-78
2022/06/11 06:00:49;;;;;;;4.92;2.90;;;;;;;29.33;100.00;99939.73;1677122;85;21019;-78
2022/06/11 06:03:16;;;;;;;7.85;3.30;;;;;;;29.51;100.00;99935.31;1664601;86;21045;-79
2022/06/11 06:05:43;;;;;;;9.48;3.47;;;;;;;29.66;100.00;99935.67;1678989;85;21090;-76
2022/06/11 06:08:11;;;;;;;11.60;3.30;;;;;;;29.79;99.45;99931.91;1650238;87;21035;-79
2022/06/11 06:10:39;;;;;;;11.00;3.62;;;;;;;29.90;97.67;99930.03;1663930;86;21094;-75
2022/06/11 06:13:45;;;;;;;11.48;3.50;;;;;;;30.01;95.23;99929.87;1678914;85;21046;-77
2022/06/11 06:15:37;;;;;;;7.22;3.05;;;;;;;30.10;95.20;99929.43;1648063;87;21049;-79
2022/06/11 06:18:04;;;;;;;7.25;2.75;;;;;;;30.22;94.07;99927.56;1664080;86;21034;-75
2022/06/11 06:20:32;;;;;;;7.85;3.30;;;;;;;30.34;92.06;99936.31;1678653;85;21094;-77
2022/06/11 06:22:59;;;;;;;9.85;3.65;;;;;;;30.41;87.22;99934.53;1638683;87;21071;-78
2022/06/11 06:25:26;;;;;;;17.77;4.40;;;;;;;30.48;87.40;99937.17;1646070;87;21047;-78
2022/06/11 06:27:53;;;;;;;14.30;3.33;;;;;;;30.62;86.95;99933.02;1646300;87;21470;-73
2022/06/11 06:30:20;;;;;;;11.57;3.30;;;;;;;30.73;86.88;99930.85;1646376;87;21581;-76
2022/06/11 06:32:47;;;;;;;7.85;3.55;;;;;;;30.83;86.86;99934.84;1646015;87;21525;-73
2022/06/11 06:35:14;;;;;;;9.93;3.47;;;;;;;30.92;82.63;99932.74;1646327;87;21150;-75
2022/06/11 06:37:41;;;;;;;16.75;4.33;;;;;;;31.01;83.84;99933.70;1629444;87;21020;-74
2022/06/11 06:40:09;;;;;;;18.62;6.15;;;;;;;31.23;85.09;99932.94;1646310;86;21058;-72
2022/06/11 06:42:36;;;;;;;10.98;4.20;;;;;;;31.41;80.98;99933.40;1646109;87;21051;-75
2022/06/11 06:45:05;;;;;;;8.45;3.47;;;;;;;31.57;81.66;99934.45;1646324;87;21497;-74
2022/06/11 06:47:34;;;;;;;10.75;3.10;;;;;;;31.71;79.97;99935.24;1645978;87;21071;-74
2022/06/11 06:50:03;;;;;;;9.50;3.47;;;;;;;31.80;78.19;99938.11;1646399;87;21460;-75
2022/06/11 06:52:30;;;;;;;8.48;3.25;;;;;;;31.81;71.63;99939.78;1629573;87;21561;-75
2022/06/11 06:54:57;;;;;;;12.90;3.60;;;;;;;31.76;72.55;99941.30;1654025;87;21054;-76
2022/06/11 06:57:24;;;;;;;11.83;3.27;;;;;;;31.68;73.99;99937.30;1654021;87;21573;-73
2022/06/11 06:59:51;;;;;;;7.42;2.87;;;;;;;31.75;74.19;99939.66;1654236;87;21534;-76
2022/06/11 07:02:19;;;;;;;6.95;3.05;;;;;;;31.79;70.13;99942.07;1694746;85;21048;-74
2022/06/11 07:04:46;;;;;;;8.28;3.17;;;;;;;31.90;72.02;99940.67;1694979;85;21020;-74
2022/06/11 07:07:15;;;;;;;11.00;3.50;;;;;;;32.07;71.14;99940.02;1694856;84;21068;-76
2022/06/11 07:09:43;;;;;;;7.78;2.98;;;;;;;32.25;67.44;99942.36;1695013;85;21071;-76
2022/06/11 07:12:10;;;;;;;9.25;3.52;;;;;;;32.28;64.93;99936.14;1694194;85;21037;-75
2022/06/11 07:14:38;;;;;;;9.05;3.50;;;;;;;32.38;63.77;99940.63;1703026;83;21046;-75
2022/06/11 07:17:06;;;;;;;12.70;3.98;;;;;;;32.55;63.77;99936.53;1720336;83;21974;-75
2022/06/11 07:19:39;;;;;;;11.05;3.80;;;;;;;32.69;63.82;99935.08;1694514;83;21558;-75
2022/06/11 07:22:11;;;;;;;8.13;3.15;;;;;;;32.77;65.12;99936.84;1720003;83;21046;-76
2022/06/11 07:24:38;;;;;;;8.48;3.40;;;;;;;32.88;65.52;99926.98;1720797;82;21507;-76
2022/06/11 07:27:10;;;;;;;9.40;3.20;;;;;;;32.99;62.52;99936.77;1720888;83;21042;-74
2022/06/11 07:29:52;;;;;;;9.18;3.35;;;;;;;33.08;61.60;99932.02;1720450;83;21081;-74
2022/06/11 07:32:20;;;;;;;6.58;2.60;;;;;;;33.11;56.84;99934.72;1720543;83;20999;-75
2022/06/11 07:34:47;;;;;;;11.70;3.22;;;;;;;33.29;56.39;99930.86;1720686;83;21025;-75
2022/06/11 07:37:15;;;;;;;11.78;4.35;;;;;;;33.40;53.04;99930.56;1720713;83;21054;-76
2022/06/11 07:39:42;;;;;;;9.35;3.15;;;;;;;33.38;53.13;99924.44;1720943;83;21010;-76
2022/06/11 07:42:10;;;;;;;8.88;3.22;;;;;;;33.35;51.68;99925.11;1720829;83;21018;-75
2022/06/11 07:44:38;;;;;;;12.53;3.40;;;;;;;33.36;50.16;99917.78;1720848;83;21197;-76
2022/06/11 07:47:05;;;;;;;14.75;4.30;;;;;;;33.47;50.30;99922.49;1720684;83;21034;-75
2022/06/11 07:49:32;;;;;;;11.63;4.28;;;;;;;33.62;47.32;99925.37;1720613;83;21563;-75
2022/06/11 07:52:00;;;;;;;8.25;5.15;;;;;;;33.71;45.86;99919.22;1720494;83;21042;-76
2022/06/11 07:54:27;;;;;;;7.50;3.33;;;;;;;33.83;44.49;99923.59;1720476;83;21061;-79
2022/06/11 07:56:54;;;;;;;11.20;3.42;;;;;;;34.03;44.72;99922.11;1720515;83;21038;-74
2022/06/11 07:59:20;;;;;;;7.70;3.75;;;;;;;34.19;43.21;99913.19;1720800;83;21015;-74
2022/06/11 08:01:49;;;;;;;8.90;3.70;;;;;;;34.22;41.70;99914.75;1720986;83;21036;-75
2022/06/11 08:04:16;;;;;;;5.40;3.30;;;;;;;34.40;41.74;99909.91;1720869;83;21002;-75
2022/06/11 08:06:44;;;;;;;12.53;4.90;;;;;;;34.58;39.52;99912.11;1720649;83;21496;-76
2022/06/11 08:09:13;;;;;;;10.25;4.05;;;;;;;34.67;37.38;99919.66;1720348;83;21539;-75
2022/06/11 08:11:40;;;;;;;9.15;3.80;;;;;;;34.67;36.69;99919.09;1720769;83;20991;-76
2022/06/11 08:14:09;;;;;;;7.25;4.30;;;;;;;34.70;36.02;99908.61;1716327;83;21082;-74
2022/06/11 08:16:38;;;;;;;11.75;4.80;;;;;;;34.83;35.15;99911.53;1691738;85;21070;-77
2022/06/11 08:19:05;;;;;;;7.97;4.60;;;;;;;35.01;34.61;99908.05;1692271;85;21030;-74
2022/06/11 08:21:31;;;;;;;11.08;4.55;;;;;;;35.06;34.41;99909.26;1692569;85;20995;-77
2022/06/11 08:23:58;;;;;;;12.13;4.53;;;;;;;35.04;32.89;99915.21;1718546;83;21037;-79
2022/06/11 08:26:25;;;;;;;9.58;4.33;;;;;;;35.04;32.96;99918.02;1720838;83;21034;-80
2022/06/11 08:28:52;;;;;;;9.48;4.80;;;;;;;34.99;32.12;99905.02;1721296;83;21010;-76
2022/06/11 08:31:19;;;;;;;11.50;5.65;;;;;;;34.93;32.03;99909.75;1721156;83;20979;-75
2022/06/11 08:33:47;;;;;;;11.22;6.05;;;;;;;34.90;32.79;99904.24;1720698;83;21049;-76
2022/06/11 08:36:14;;;;;;;12.05;5.50;;;;;;;34.95;31.87;99902.65;1720720;83;21006;-77
2022/06/11 08:38:43;;;;;;;13.60;5.90;;;;;;;35.00;31.87;99894.59;1722097;83;21023;-79
2022/06/11 08:41:20;;;;;;;10.05;5.22;;;;;;;35.21;32.50;99898.06;1721261;83;20995;-74
2022/06/11 08:44:09;;;;;;;8.98;5.00;;;;;;;35.40;31.48;99902.64;1721024;83;21002;-77
2022/06/11 08:46:40;;;;;;;9.28;5.50;;;;;;;35.53;31.39;99896.50;1721446;83;21073;-79
2022/06/11 08:49:13;;;;;;;11.73;5.45;;;;;;;35.69;31.76;99898.92;1721325;83;21038;-79
2022/06/11 08:51:49;;;;;;;13.72;7.50;;;;;;;35.89;32.08;99888.02;1720875;83;21042;-77
2022/06/11 08:54:27;;;;;;;16.17;8.65;;;;;;;35.96;28.87;99893.09;1718823;83;21002;-78
2022/06/11 08:57:03;;;;;;;17.65;8.73;;;;;;;35.93;29.12;99886.19;1716056;84;21024;-78
2022/06/11 09:00:02;;;;;;;18.32;9.38;;;;;;;35.85;28.69;99892.70;1716331;84;21018;-80
2022/06/11 09:02:56;;;;;;;18.48;8.40;;;;;;;35.75;27.95;99892.53;1715600;84;21600;-71
2022/06/11 09:06:04;;;;;;;15.83;7.95;;;;;;;35.74;28.92;99886.09;1715893;84;21066;-74
2022/06/11 09:08:53;;;;;;;18.15;7.92;;;;;;;35.81;27.95;99882.73;1715452;84;21014;-76
2022/06/11 09:12:04;;;;;;;14.68;7.87;;;;;;;35.95;28.35;99874.56;1715064;84;21038;-78
2022/06/11 09:14:58;;;;;;;17.10;8.10;;;;;;;36.18;28.29;99867.98;1630139;88;21127;-78
2022/06/11 09:17:38;;;;;;;19.48;8.40;;;;;;;36.19;27.77;99873.23;1610862;85;21161;-76
2022/06/11 09:20:22;;;;;;;18.35;8.43;;;;;;;36.13;27.58;99873.23;1608724;89;21158;-80
2022/06/11 09:23:15;;;;;;;14.95;7.65;;;;;;;36.03;28.29;99863.81;1610506;89;21039;-75
2022/06/11 09:26:24;;;;;;;16.77;8.78;;;;;;;36.06;28.09;99863.94;1611998;89;21051;-77
2022/06/11 09:29:25;;;;;;;19.52;8.85;;;;;;;36.11;27.74;99856.69;1611044;89;21078;-73
2022/06/11 09:32:24;;;;;;;13.38;7.87;;;;;;;35.93;28.02;99863.68;1609814;89;21046;-76
2022/06/11 09:34:59;;;;;;;15.23;7.83;;;;;;;35.88;28.42;99865.30;1588985;89;21151;-78
2022/06/11 09:37:34;;;;;;;15.05;7.60;;;;;;;36.05;28.43;99865.13;1614039;89;21061;-75
2022/06/11 09:40:10;;;;;;;18.20;7.50;;;;;;;35.93;28.49;99864.50;1614010;89;21085;-76
2022/06/11 09:42:54;;;;;;;16.80;8.20;;;;;;;35.90;28.12;99867.18;1614322;89;21017;-77
2022/06/11 09:45:32;;;;;;;18.42;8.40;;;;;;;35.98;28.97;99868.25;1638550;86;21086;-74
2022/06/11 09:48:17;;;;;;;16.40;7.87;;;;;;;36.13;27.96;99856.34;1667279;86;21601;-75
2022/06/11 09:50:55;;;;;;;16.45;8.48;;;;;;;36.17;29.21;99853.06;1665646;86;21559;-78
2022/06/11 09:53:39;;;;;;;20.45;9.48;;;;;;;36.29;28.51;99860.75;1609628;89;21121;-78
2022/06/11 09:56:20;;;;;;;21.05;9.10;;;;;;;36.30;27.12;99859.00;1611451;89;21098;-76
2022/06/11 09:59:25;;;;;;;16.02;8.50;;;;;;;36.36;27.97;99855.96;1535216;93;21412;-74
2022/06/11 10:02:16;;;;;;;19.05;8.95;;;;;;;36.55;27.59;99851.99;1535209;93;21136;-76
2022/06/11 10:04:42;;;;;;;19.35;8.95;;;;;;;36.65;26.08;99850.69;1531350;93;21099;-75
2022/06/11 10:07:20;;;;;;;17.80;8.80;;;;;;;36.65;26.10;99854.91;1535753;93;21031;-80
2022/06/11 10:10:04;;;;;;;16.95;8.60;;;;;;;36.68;27.61;99850.02;1467949;96;21141;-79
2022/06/11 10:12:42;;;;;;;14.25;8.13;;;;;;;36.65;26.69;99857.16;1466531;98;21634;-75
2022/06/11 10:15:23;;;;;;;15.90;8.25;;;;;;;36.39;25.48;99860.30;1386374;103;21695;-77
2022/06/11 10:18:20;;;;;;;23.18;8.23;;;;;;;36.33;26.69;99853.84;1374643;104;21114;-78
2022/06/11 10:20:52;;;;;;;14.98;8.03;;;;;;;36.42;26.06;99850.33;1366223;105;21158;-75
2022/06/11 10:23:45;;;;;;;16.80;8.05;;;;;;;36.44;26.69;99850.23;1366240;105;21247;-76
2022/06/11 10:26:29;;;;;;;16.85;8.08;;;;;;;36.48;26.74;99849.75;1366395;105;21257;-76
2022/06/11 10:29:18;;;;;;;15.43;7.25;;;;;;;36.53;26.60;99851.52;1366213;105;21165;-74
2022/06/11 10:31:57;;;;;;;17.07;7.30;;;;;;;36.37;25.64;99842.95;1366262;105;21647;-76
2022/06/11 10:34:26;;;;;;;12.35;7.12;;;;;;;36.34;25.14;99847.86;1354127;105;21168;-77
2022/06/11 10:37:14;;;;;;;39.33;9.53;;;;;;;36.20;25.45;99841.74;1352007;106;21171;-77
2022/06/11 10:40:04;;;;;;;13.48;6.35;;;;;;;36.38;25.62;99838.12;1355203;106;21140;-75
2022/06/11 10:43:14;;;;;;;15.98;7.05;;;;;;;36.57;27.08;99838.97;1355104;106;21172;-74
2022/06/11 10:45:43;;;;;;;12.25;6.10;;;;;;;36.84;25.94;99836.05;1355203;105;21653;-75
2022/06/11 10:48:17;;;;;;;10.20;5.72;;;;;;;36.98;25.78;99833.69;1355295;105;21220;-76
2022/06/11 10:50:45;;;;;;;11.83;6.35;;;;;;;37.05;25.19;99831.09;1355435;106;21590;-75
2022/06/11 10:53:25;;;;;;;13.70;5.92;;;;;;;37.08;24.93;99825.91;1355198;106;21194;-76
2022/06/11 10:56:12;;;;;;;13.03;6.00;;;;;;;37.11;25.72;99830.25;1343302;105;21166;-76
2022/06/11 10:58:58;;;;;;;14.33;6.83;;;;;;;37.14;25.28;99828.14;1309382;109;21164;-76
2022/06/11 11:01:42;;;;;;;18.00;7.83;;;;;;;37.05;23.99;99824.64;1322167;109;21178;-78
2022/06/11 11:04:42;;;;;;;14.65;7.10;;;;;;;36.47;24.53;99826.17;1311920;106;21335;-77
2022/06/11 11:07:19;;;;;;;16.50;7.35;;;;;;;36.44;25.81;99822.64;1343865;106;21164;-77
2022/06/11 11:09:48;;;;;;;14.80;6.80;;;;;;;36.74;25.09;99816.80;1338504;106;21178;-78
2022/06/11 11:12:36;;;;;;;19.27;6.10;;;;;;;36.85;24.71;99823.03;1345691;106;21701;-76
2022/06/11 11:15:15;;;;;;;14.05;6.37;;;;;;;36.76;24.24;99819.52;1351519;105;21117;-78
2022/06/11 11:17:47;;;;;;;14.78;6.12;;;;;;;36.66;24.14;99821.36;1335885;107;21170;-77
2022/06/11 11:20:41;;;;;;;12.35;5.08;;;;;;;36.58;24.40;99829.34;1368911;105;21151;-75
2022/06/11 11:23:38;;;;;;;15.80;5.60;;;;;;;36.55;24.64;99818.77;1378649;102;21650;-76
2022/06/11 11:26:10;;;;;;;10.68;4.65;;;;;;;36.49;23.75;99816.21;1385759;104;21148;-75
2022/06/11 11:28:54;;;;;;;9.65;5.45;;;;;;;36.43;23.37;99812.56;1370083;101;21121;-75
2022/06/11 11:31:29;;;;;;;11.53;5.00;;;;;;;36.32;24.22;99819.25;1404935;99;21619;-77
2022/06/11 11:34:13;;;;;;;26.10;6.65;;;;;;;36.33;24.59;99800.36;1443145;99;21085;-75
2022/06/11 11:36:40;;;;;;;11.43;5.28;;;;;;;36.55;24.76;99797.65;1439121;98;21680;-76
2022/06/11 11:39:18;;;;;;;11.50;5.30;;;;;;;36.68;25.11;99795.11;1417568;100;21089;-75
2022/06/11 11:42:03;;;;;;;13.13;5.75;;;;;;;36.78;24.27;99803.08;1435001;100;21162;-76
2022/06/11 11:44:36;;;;;;;7.97;4.40;;;;;;;36.59;24.39;99793.79;1435156;95;21086;-76
2022/06/11 11:47:10;;;;;;;10.78;4.60;;;;;;;36.65;24.42;99795.20;1434966;100;21220;-75
2022/06/11 11:49:38;;;;;;;13.62;4.80;;;;;;;36.71;25.48;99791.59;1432880;100;21141;-75
2022/06/11 11:52:12;;;;;;;8.88;4.60;;;;;;;36.79;24.15;99784.18;1434965;100;21117;-75
2022/06/11 11:54:54;;;;;;;9.35;4.33;;;;;;;36.70;24.32;99790.53;1454076;94;21128;-77